createdAt,value
2018-10-06T00:02:00.208Z,14.00
2018-10-06T00:04:34.225Z,13.90
2018-10-06T00:07:08.156Z,13.60
2018-10-06T00:09:45.086Z,13.50
2018-10-06T00:12:19.627Z,13.40
2018-10-06T00:14:54.800Z,13.40
2018-10-06T00:17:31.480Z,13.40
2018-10-06T00:20:09.558Z,13.60
2018-10-06T00:22:41.494Z,13.70
2018-10-06T00:25:14.108Z,13.90
2018-10-06T00:27:46.288Z,13.90
2018-10-06T00:30:18.140Z,13.80
2018-10-06T00:32:51.783Z,13.80
2018-10-06T00:35:28.949Z,13.90
2018-10-06T00:38:06.869Z,14.00
2018-10-06T00:40:43.006Z,14.00
2018-10-06T00:43:13.593Z,14.10
2018-10-06T00:45:46.805Z,14.00
2018-10-06T00:48:31.161Z,14.00
2018-10-06T00:51:27.024Z,13.90
2018-10-06T00:54:07.900Z,13.90
2018-10-06T00:56:41.030Z,13.80
2018-10-06T00:59:18.168Z,13.80
2018-10-06T01:01:51.063Z,13.80
2018-10-06T01:04:22.430Z,13.80
2018-10-06T01:06:58.241Z,13.80
2018-10-06T01:09:37.743Z,13.80
2018-10-06T01:12:11.264Z,13.80
2018-10-06T01:14:41.784Z,13.80
2018-10-06T01:17:10.657Z,13.80
2018-10-06T01:19:41.223Z,13.80
2018-10-06T01:22:25.830Z,13.80
2018-10-06T01:47:22.666Z,13.60
2018-10-06T01:50:20.393Z,13.60
2018-10-06T01:53:04.674Z,13.60
2018-10-06T02:03:07.441Z,13.50
2018-10-06T02:08:30.707Z,13.50
2018-10-06T02:11:22.718Z,13.50
2018-10-06T02:14:08.878Z,13.50
2018-10-06T02:24:19.371Z,13.40
2018-10-06T02:29:48.227Z,13.30
2018-10-06T02:32:30.034Z,13.30
2018-10-06T02:35:15.356Z,13.30
2018-10-06T02:38:06.823Z,13.30
2018-10-06T02:44:29.168Z,13.20
2018-10-06T03:00:49.508Z,13.00
2018-10-06T03:03:37.315Z,12.60
2018-10-06T03:06:07.664Z,12.70
2018-10-06T03:08:42.750Z,12.80
2018-10-06T03:11:32.930Z,12.90
2018-10-06T03:14:06.038Z,12.90
2018-10-06T03:16:42.835Z,12.90
2018-10-06T03:19:20.108Z,13.00
2018-10-06T03:21:49.270Z,13.10
2018-10-06T03:24:30.647Z,13.00
2018-10-06T03:27:03.722Z,13.00
2018-10-06T03:29:41.894Z,13.10
2018-10-06T03:32:19.875Z,12.90
2018-10-06T03:34:55.893Z,12.80
2018-10-06T03:37:35.404Z,12.80
2018-10-06T03:40:11.619Z,12.80
2018-10-06T03:43:01.094Z,12.80
2018-10-06T03:45:36.412Z,12.50
2018-10-06T03:48:15.465Z,12.60
2018-10-06T03:50:52.732Z,12.80
2018-10-06T03:53:36.409Z,12.90
2018-10-06T03:56:24.308Z,13.00
2018-10-06T03:59:03.234Z,13.10
2018-10-06T04:01:50.362Z,13.00
2018-10-06T04:04:37.253Z,13.00
2018-10-06T04:13:16.922Z,12.90
2018-10-06T04:18:52.423Z,12.90
2018-10-06T04:21:37.459Z,13.00
2018-10-06T04:24:26.856Z,12.90
2018-10-06T04:27:18.558Z,12.80
2018-10-06T04:30:01.665Z,12.90
2018-10-06T04:32:41.472Z,12.70
2018-10-06T04:38:19.872Z,12.80
2018-10-06T04:41:06.322Z,12.80
2018-10-06T04:43:51.374Z,12.90
2018-10-06T04:46:35.716Z,12.90
2018-10-06T04:55:22.367Z,12.90
2018-10-06T04:58:24.228Z,12.90
2018-10-06T05:01:36.970Z,12.80
2018-10-06T05:04:19.346Z,12.80
2018-10-06T05:12:50.266Z,12.80
2018-10-06T05:15:26.976Z,12.60
2018-10-06T05:18:05.217Z,12.80
2018-10-06T05:20:56.278Z,12.80
2018-10-06T05:24:03.732Z,12.80
2018-10-06T05:26:44.119Z,12.70
2018-10-06T05:30:06.595Z,12.80
2018-10-06T05:33:00.806Z,12.60
2018-10-06T05:35:44.171Z,12.70
2018-10-06T05:41:24.699Z,12.60
2018-10-06T05:44:14.355Z,12.60
2018-10-06T05:46:49.017Z,12.60
2018-10-06T05:49:26.859Z,12.60
2018-10-06T05:52:05.797Z,12.60
2018-10-06T05:54:56.669Z,12.60
2018-10-06T05:57:43.812Z,12.60
2018-10-06T06:00:28.790Z,12.60
2018-10-06T06:03:01.196Z,12.60
2018-10-06T06:05:40.883Z,12.60
2018-10-06T06:13:19.235Z,12.50
2018-10-06T06:15:47.541Z,12.40
2018-10-06T06:18:20.567Z,12.40
2018-10-06T06:20:48.824Z,12.50
2018-10-06T06:23:17.068Z,12.50
2018-10-06T06:25:57.476Z,12.60
2018-10-06T06:28:25.773Z,12.50
2018-10-06T06:30:59.683Z,12.50
2018-10-06T06:33:27.970Z,12.50
2018-10-06T06:35:59.938Z,12.50
2018-10-06T06:38:28.365Z,12.50
2018-10-06T06:40:56.551Z,12.60
2018-10-06T06:43:25.717Z,12.50
2018-10-06T06:45:53.947Z,12.60
2018-10-06T06:48:22.204Z,12.70
2018-10-06T06:50:50.514Z,12.70
2018-10-06T06:53:20.308Z,12.80
2018-10-06T06:55:51.316Z,12.80
2018-10-06T06:58:22.160Z,12.80
2018-10-06T07:00:55.655Z,12.80
2018-10-06T07:18:44.060Z,12.90
2018-10-06T07:21:17.192Z,13.30
2018-10-06T07:23:47.752Z,13.30
2018-10-06T07:26:24.596Z,13.30
2018-10-06T07:28:56.042Z,13.30
2018-10-06T07:31:30.119Z,13.30
2018-10-06T07:34:14.453Z,13.40
2018-10-06T07:36:45.998Z,13.40
2018-10-06T08:14:49.305Z,13.60
2018-10-06T08:17:23.795Z,14.50
2018-10-06T08:31:46.431Z,14.70
2018-10-06T09:06:59.666Z,15.00
2018-10-06T09:12:40.127Z,15.70
2018-10-06T09:15:16.044Z,15.70
2018-10-06T09:17:53.731Z,15.70
2018-10-06T09:20:29.397Z,15.80
2018-10-06T09:23:09.696Z,15.80
2018-10-06T09:28:36.629Z,15.90
2018-10-06T09:31:24.554Z,15.90
2018-10-06T09:34:01.078Z,16.00
2018-10-06T09:36:41.636Z,16.10
2018-10-06T09:42:05.078Z,16.20
2018-10-06T09:47:46.545Z,16.30
2018-10-06T09:53:19.262Z,16.40
2018-10-06T09:55:54.828Z,16.50
2018-10-06T09:58:26.691Z,16.50
2018-10-06T10:01:02.910Z,16.50
2018-10-06T10:03:38.792Z,16.60
2018-10-06T10:06:13.560Z,16.70
2018-10-06T10:08:42.203Z,16.80
2018-10-06T10:11:48.124Z,16.80
2018-10-06T10:14:38.591Z,16.90
2018-10-06T10:20:36.788Z,17.00
2018-10-06T10:23:16.341Z,17.10
2018-10-06T10:28:57.022Z,17.10
2018-10-06T10:31:33.785Z,17.30
2018-10-06T10:34:09.785Z,17.20
2018-10-06T10:37:01.046Z,17.20
2018-10-06T10:39:45.872Z,17.30
2018-10-06T10:42:23.092Z,17.40
2018-10-06T10:45:08.644Z,17.50
2018-10-06T10:50:37.603Z,17.60
2018-10-06T10:56:20.552Z,17.60
2018-10-06T10:58:58.125Z,17.60
2018-10-06T11:01:31.805Z,17.60
2018-10-06T11:04:08.980Z,17.70
2018-10-06T11:06:54.651Z,17.70
2018-10-06T11:09:23.471Z,17.80
2018-10-06T11:11:52.535Z,17.90
2018-10-06T11:14:21.424Z,17.90
2018-10-06T11:16:50.529Z,17.90
2018-10-06T11:19:19.497Z,17.90
2018-10-06T11:21:49.671Z,18.00
2018-10-06T11:24:21.233Z,18.00
2018-10-06T11:26:50.468Z,18.00
2018-10-06T11:29:19.547Z,18.00
2018-10-06T11:31:49.234Z,18.10
2018-10-06T11:34:18.424Z,18.20
2018-10-06T11:36:51.116Z,18.20
2018-10-06T11:39:20.691Z,18.30
2018-10-06T11:41:54.728Z,18.40
2018-10-06T11:44:32.207Z,18.40
2018-10-06T11:47:20.068Z,18.50
2018-10-06T11:49:54.539Z,18.50
2018-10-06T11:52:23.363Z,18.50
2018-10-06T11:55:30.324Z,18.80
2018-10-06T11:57:58.581Z,19.70
2018-10-06T12:00:26.921Z,20.10
2018-10-06T12:02:55.145Z,20.50
2018-10-06T12:05:23.454Z,20.90
2018-10-06T12:07:52.447Z,20.40
2018-10-06T12:10:22.730Z,19.80
2018-10-06T12:12:51.000Z,19.50
2018-10-06T12:15:19.290Z,19.30
2018-10-06T12:17:47.638Z,19.10
2018-10-06T12:20:16.071Z,19.00
2018-10-06T12:22:44.347Z,19.00
2018-10-06T12:25:12.887Z,18.90
2018-10-06T12:27:41.154Z,18.90
2018-10-06T12:30:09.568Z,18.90
2018-10-06T12:32:38.188Z,18.90
2018-10-06T12:35:06.574Z,18.90
2018-10-06T12:37:34.824Z,19.00
2018-10-06T12:40:03.285Z,19.00
2018-10-06T12:42:38.114Z,18.90
2018-10-06T12:45:06.674Z,19.00
2018-10-06T12:47:35.320Z,19.10
2018-10-06T12:50:03.639Z,19.10
2018-10-06T12:52:32.313Z,19.10
2018-10-06T12:55:00.585Z,19.10
2018-10-06T12:57:28.870Z,19.10
2018-10-06T12:59:57.245Z,19.10
2018-10-06T13:02:26.271Z,19.10
2018-10-06T13:04:55.539Z,19.10
2018-10-06T13:07:24.880Z,19.10
2018-10-06T13:09:53.157Z,19.20
2018-10-06T13:12:21.397Z,19.30
2018-10-06T13:14:53.720Z,19.40
2018-10-06T13:17:23.070Z,19.50
2018-10-06T13:19:51.351Z,19.50
2018-10-06T13:22:20.125Z,19.50
2018-10-06T13:24:50.304Z,19.70
2018-10-06T13:27:19.592Z,19.70
2018-10-06T13:29:47.935Z,19.70
2018-10-06T13:32:17.043Z,19.60
2018-10-06T13:34:45.328Z,19.60
2018-10-06T13:37:13.700Z,19.60
2018-10-06T13:39:42.076Z,19.70
2018-10-06T13:42:10.435Z,19.70
2018-10-06T13:44:38.773Z,19.70
2018-10-06T13:47:07.474Z,19.80
2018-10-06T13:49:35.771Z,19.90
2018-10-06T13:52:04.096Z,19.90
2018-10-06T13:54:32.344Z,19.80
2018-10-06T13:57:00.618Z,19.80
2018-10-06T13:59:29.155Z,19.70
2018-10-06T14:01:57.499Z,19.70
2018-10-06T14:04:25.861Z,19.80
2018-10-06T14:06:54.612Z,19.80
2018-10-06T14:09:22.919Z,19.90
2018-10-06T14:11:51.275Z,20.00
2018-10-06T14:14:19.566Z,20.00
2018-10-06T14:16:47.822Z,20.00
2018-10-06T14:19:16.074Z,20.00
2018-10-06T14:21:44.398Z,20.20
2018-10-06T14:24:12.679Z,20.30
2018-10-06T14:26:41.396Z,20.40
2018-10-06T14:32:09.175Z,20.30
2018-10-06T14:34:53.493Z,20.20
2018-10-06T14:37:33.770Z,20.10
2018-10-06T14:40:20.374Z,20.00
2018-10-06T14:42:55.450Z,20.10
2018-10-06T14:45:35.160Z,20.10
2018-10-06T14:57:45.995Z,19.80
2018-10-06T15:00:22.310Z,19.50
2018-10-06T15:05:50.183Z,19.60
2018-10-06T15:08:23.285Z,19.50
2018-10-06T15:11:08.737Z,19.50
2018-10-06T15:13:42.778Z,19.50
2018-10-06T15:16:16.728Z,19.50
2018-10-06T15:21:59.293Z,19.40
2018-10-06T15:24:29.682Z,19.40
2018-10-06T15:27:00.141Z,19.30
2018-10-06T15:29:29.446Z,19.30
2018-10-06T15:31:57.699Z,19.30
2018-10-06T15:34:26.929Z,19.20
2018-10-06T15:36:55.197Z,19.10
2018-10-06T15:39:23.766Z,19.10
2018-10-06T15:41:52.820Z,19.10
2018-10-06T15:44:21.273Z,19.00
2018-10-06T15:46:49.662Z,18.90
2018-10-06T15:49:18.030Z,18.80
2018-10-06T15:51:46.392Z,18.70
2018-10-06T15:54:14.712Z,18.60
2018-10-06T15:56:43.175Z,18.60
2018-10-06T15:59:12.009Z,18.50
2018-10-06T16:01:40.362Z,18.50
2018-10-06T16:04:09.292Z,18.40
2018-10-06T16:06:37.590Z,18.30
2018-10-06T16:09:07.998Z,18.20
2018-10-06T16:11:37.957Z,18.20
2018-10-06T16:14:06.347Z,18.10
2018-10-06T16:16:34.896Z,18.00
2018-10-06T16:19:03.218Z,17.90
2018-10-06T16:21:31.668Z,17.90
2018-10-06T16:24:00.740Z,17.80
2018-10-06T16:26:29.134Z,17.80
2018-10-06T16:28:58.817Z,17.80
2018-10-06T16:31:28.617Z,17.70
2018-10-06T16:33:57.429Z,17.70
2018-10-06T16:36:25.826Z,17.60
2018-10-06T16:38:54.257Z,17.60
2018-10-06T16:41:22.729Z,17.60
2018-10-06T16:43:51.032Z,17.60
2018-10-06T16:46:19.302Z,17.50
2018-10-06T16:48:47.596Z,17.50
2018-10-06T16:51:15.957Z,17.40
2018-10-06T16:53:44.214Z,17.40
2018-10-06T16:56:13.141Z,17.30
2018-10-06T16:58:41.454Z,17.30
2018-10-06T17:01:09.747Z,17.30
2018-10-06T17:03:38.044Z,17.30
2018-10-06T17:06:06.356Z,17.20
2018-10-06T17:08:34.877Z,17.20
2018-10-06T17:11:03.208Z,17.20
2018-10-06T17:13:31.477Z,17.20
2018-10-06T17:15:59.974Z,17.50
2018-10-06T17:18:33.424Z,17.40
2018-10-06T17:24:13.457Z,17.20
2018-10-06T17:26:57.916Z,17.20
2018-10-06T17:32:55.217Z,17.10
2018-10-06T17:35:39.711Z,17.00
2018-10-06T17:38:14.830Z,17.00
2018-10-06T17:41:10.807Z,17.00
2018-10-06T17:43:46.100Z,17.00
2018-10-06T17:46:21.387Z,16.90
2018-10-06T17:48:49.972Z,17.00
2018-10-06T17:51:49.623Z,17.00
2018-10-06T17:54:17.894Z,16.90
2018-10-06T17:56:46.177Z,16.90
2018-10-06T17:59:14.434Z,16.90
2018-10-06T18:01:42.698Z,16.80
2018-10-06T18:04:10.937Z,16.80
2018-10-06T18:06:39.191Z,16.80
2018-10-06T18:09:08.847Z,16.70
2018-10-06T18:11:37.377Z,16.70
2018-10-06T18:14:06.859Z,16.60
2018-10-06T18:16:35.206Z,16.60
2018-10-06T18:19:03.474Z,16.50
2018-10-06T18:21:32.194Z,16.50
2018-10-06T18:24:00.359Z,16.50
2018-10-06T18:26:28.719Z,16.40
2018-10-06T18:28:57.037Z,16.40
2018-10-06T18:31:25.313Z,16.30
2018-10-06T18:33:53.621Z,16.30
2018-10-06T18:36:22.006Z,16.30
2018-10-06T18:38:50.201Z,16.30
2018-10-06T18:41:18.485Z,16.20
2018-10-06T18:43:46.950Z,16.20
2018-10-06T18:46:15.211Z,16.20
2018-10-06T18:48:43.497Z,16.20
2018-10-06T18:51:11.945Z,16.20
2018-10-06T18:53:40.587Z,16.20
2018-10-06T18:56:08.959Z,16.20
2018-10-06T18:58:37.206Z,16.10
2018-10-06T19:01:05.469Z,16.10
2018-10-06T19:03:33.851Z,16.10
2018-10-06T19:06:02.115Z,16.10
2018-10-06T19:08:30.369Z,16.00
2018-10-06T19:10:58.664Z,16.00
2018-10-06T19:13:27.017Z,15.90
2018-10-06T19:15:55.328Z,15.90
2018-10-06T19:18:23.932Z,15.90
2018-10-06T19:20:52.231Z,15.90
2018-10-06T19:23:20.529Z,15.90
2018-10-06T19:25:48.897Z,15.80
2018-10-06T19:28:17.124Z,15.80
2018-10-06T19:30:45.444Z,15.80
2018-10-06T19:33:13.746Z,15.80
2018-10-06T19:35:42.478Z,15.80
2018-10-06T19:38:10.821Z,15.80
2018-10-06T19:40:39.104Z,15.80
2018-10-06T19:43:07.404Z,15.80
2018-10-06T19:45:35.705Z,15.80
2018-10-06T19:48:04.102Z,15.80
2018-10-06T19:50:32.522Z,15.80
2018-10-06T19:53:00.798Z,15.70
2018-10-06T19:55:29.192Z,15.70
2018-10-06T19:57:57.465Z,15.70
2018-10-06T20:00:26.487Z,15.60
2018-10-06T20:02:54.751Z,15.60
2018-10-06T20:05:23.025Z,15.50
2018-10-06T20:07:51.376Z,15.50
2018-10-06T20:10:19.634Z,15.40
2018-10-06T20:12:47.904Z,15.50
2018-10-06T20:15:16.214Z,15.50
2018-10-06T20:17:45.033Z,15.40
2018-10-06T20:20:13.322Z,15.50
2018-10-06T20:22:41.775Z,15.40
2018-10-06T20:25:10.162Z,15.30
2018-10-06T20:27:38.452Z,15.30
2018-10-06T20:30:06.793Z,15.30
2018-10-06T20:32:35.070Z,15.30
2018-10-06T20:35:03.969Z,15.30
2018-10-06T20:37:32.279Z,15.30
2018-10-06T20:40:00.607Z,15.20
2018-10-06T20:42:28.899Z,15.10
2018-10-06T20:44:57.153Z,15.10
2018-10-06T20:47:25.532Z,15.10
2018-10-06T20:49:53.823Z,15.20
2018-10-06T20:52:22.103Z,15.10
2018-10-06T20:54:50.440Z,15.10
2018-10-06T20:57:18.743Z,15.10
2018-10-06T20:59:47.047Z,15.10
2018-10-06T21:02:15.311Z,15.00
2018-10-06T21:04:43.651Z,15.10
2018-10-06T21:07:11.947Z,15.10
2018-10-06T21:09:40.509Z,15.10
2018-10-06T21:12:08.887Z,15.00
2018-10-06T21:14:37.170Z,15.00
2018-10-06T21:17:05.673Z,15.00
2018-10-06T21:19:33.979Z,15.00
2018-10-06T21:22:02.251Z,14.90
2018-10-06T21:24:30.512Z,14.90
2018-10-06T21:26:58.775Z,15.00
2018-10-06T21:29:27.467Z,15.00
2018-10-06T21:31:55.682Z,14.90
2018-10-06T21:34:24.641Z,14.90
2018-10-06T21:36:53.003Z,14.90
2018-10-06T21:39:21.335Z,14.90
2018-10-06T21:41:49.598Z,14.80
2018-10-06T21:44:17.868Z,14.80
2018-10-06T21:46:46.133Z,14.80
2018-10-06T21:49:14.569Z,14.80
2018-10-06T21:51:42.847Z,14.70
2018-10-06T21:54:11.125Z,14.60
2018-10-06T21:56:39.418Z,14.50
2018-10-06T21:59:07.712Z,14.60
2018-10-06T22:01:35.992Z,14.40
2018-10-06T22:04:04.370Z,14.30
2018-10-06T22:06:32.647Z,14.30
2018-10-06T22:09:00.993Z,14.20
2018-10-06T22:11:29.585Z,14.20
2018-10-06T22:13:57.859Z,14.20
2018-10-06T22:16:26.157Z,14.10
2018-10-06T22:18:55.242Z,14.10
2018-10-06T22:21:23.518Z,14.00
2018-10-06T22:23:51.953Z,13.90
2018-10-06T22:26:20.201Z,13.90
2018-10-06T22:28:48.490Z,13.80
2018-10-06T22:31:16.768Z,13.80
2018-10-06T22:33:45.049Z,13.70
2018-10-06T22:36:13.309Z,13.70
2018-10-06T22:38:41.583Z,13.60
2018-10-06T22:41:09.834Z,13.60
2018-10-06T22:43:38.099Z,13.60
2018-10-06T22:46:06.665Z,13.50
2018-10-06T22:48:34.905Z,13.50
2018-10-06T22:51:03.167Z,13.40
2018-10-06T22:53:32.246Z,13.40
2018-10-06T22:56:00.994Z,13.30
2018-10-06T22:58:29.316Z,13.30
2018-10-06T23:00:57.560Z,13.20
2018-10-06T23:03:26.235Z,13.20
2018-10-06T23:05:54.531Z,13.20
2018-10-06T23:08:22.805Z,13.00
2018-10-06T23:10:51.053Z,13.00
2018-10-06T23:13:19.370Z,12.90
2018-10-06T23:15:47.626Z,12.90
2018-10-06T23:18:15.862Z,12.80
2018-10-06T23:20:44.115Z,12.80
2018-10-06T23:23:12.375Z,12.80
2018-10-06T23:25:40.614Z,12.80
2018-10-06T23:28:08.848Z,12.70
2018-10-06T23:30:37.138Z,12.70
2018-10-06T23:33:05.959Z,12.70
2018-10-06T23:35:34.181Z,12.60
2018-10-06T23:38:03.188Z,12.70
2018-10-06T23:40:31.853Z,12.70
2018-10-06T23:43:00.118Z,12.60
2018-10-06T23:45:28.405Z,12.50
2018-10-06T23:47:56.931Z,12.60
2018-10-06T23:50:26.175Z,12.60
2018-10-06T23:52:54.432Z,12.50
2018-10-06T23:55:22.933Z,12.50
2018-10-06T23:57:51.162Z,12.40
